sensor_id;sensor_type;location;lat;lon;timestamp;P1;durP1;ratioP1;P2;durP2;ratioP2
4686;SDS011;2357;47.316;-1.348;2023-09-30T00:02:22;6.10;;;2.73;;
4686;SDS011;2357;47.316;-1.348;2023-09-30T00:04:48;9.63;;;3.40;;
4686;SDS011;2357;47.316;-1.348;2023-09-30T00:07:13;7.07;;;2.77;;
4686;SDS011;2357;47.316;-1.348;2023-09-30T00:09:39;5.93;;;2.70;;
4686;SDS011;2357;47.316;-1.348;2023-09-30T00:12:05;5.27;;;2.60;;
4686;SDS011;2357;47.316;-1.348;2023-09-30T00:14:31;17.83;;;3.70;;
4686;SDS011;2357;47.316;-1.348;2023-09-30T00:16:57;10.73;;;3.80;;
4686;SDS011;2357;47.316;-1.348;2023-09-30T00:19:23;13.60;;;3.90;;
4686;SDS011;2357;47.316;-1.348;2023-09-30T00:21:49;14.57;;;4.03;;
4686;SDS011;2357;47.316;-1.348;2023-09-30T00:24:14;8.03;;;3.60;;
4686;SDS011;2357;47.316;-1.348;2023-09-30T00:26:40;8.20;;;3.10;;
4686;SDS011;2357;47.316;-1.348;2023-09-30T00:29:06;12.07;;;5.23;;
4686;SDS011;2357;47.316;-1.348;2023-09-30T00:31:32;9.53;;;3.93;;
4686;SDS011;2357;47.316;-1.348;2023-09-30T00:33:57;9.83;;;3.77;;
4686;SDS011;2357;47.316;-1.348;2023-09-30T00:36:23;9.27;;;3.63;;
4686;SDS011;2357;47.316;-1.348;2023-09-30T00:38:49;5.60;;;3.50;;
4686;SDS011;2357;47.316;-1.348;2023-09-30T00:41:14;7.03;;;3.27;;
4686;SDS011;2357;47.316;-1.348;2023-09-30T00:43:40;18.10;;;3.60;;
4686;SDS011;2357;47.316;-1.348;2023-09-30T00:49:13;9.67;;;3.87;;
4686;SDS011;2357;47.316;-1.348;2023-09-30T00:51:39;10.73;;;3.30;;
4686;SDS011;2357;47.316;-1.348;2023-09-30T00:54:05;8.73;;;3.00;;
4686;SDS011;2357;47.316;-1.348;2023-09-30T00:56:33;12.30;;;4.07;;
4686;SDS011;2357;47.316;-1.348;2023-09-30T00:59:05;14.10;;;4.30;;
4686;SDS011;2357;47.316;-1.348;2023-09-30T01:01:30;16.17;;;4.17;;
4686;SDS011;2357;47.316;-1.348;2023-09-30T01:03:56;14.43;;;3.60;;
4686;SDS011;2357;47.316;-1.348;2023-09-30T01:06:23;9.40;;;4.00;;
4686;SDS011;2357;47.316;-1.348;2023-09-30T01:08:49;22.60;;;4.77;;
4686;SDS011;2357;47.316;-1.348;2023-09-30T01:11:14;14.93;;;3.90;;
4686;SDS011;2357;47.316;-1.348;2023-09-30T01:13:40;18.43;;;4.27;;
4686;SDS011;2357;47.316;-1.348;2023-09-30T01:16:08;8.40;;;3.43;;
4686;SDS011;2357;47.316;-1.348;2023-09-30T01:18:36;16.00;;;3.97;;
4686;SDS011;2357;47.316;-1.348;2023-09-30T01:21:04;7.97;;;3.10;;
4686;SDS011;2357;47.316;-1.348;2023-09-30T01:23:31;22.30;;;3.93;;
4686;SDS011;2357;47.316;-1.348;2023-09-30T01:25:57;7.43;;;3.13;;
4686;SDS011;2357;47.316;-1.348;2023-09-30T01:28:25;10.83;;;2.60;;
4686;SDS011;2357;47.316;-1.348;2023-09-30T01:30:51;10.13;;;3.40;;
4686;SDS011;2357;47.316;-1.348;2023-09-30T01:33:17;10.27;;;3.33;;
4686;SDS011;2357;47.316;-1.348;2023-09-30T01:35:43;9.47;;;3.70;;
4686;SDS011;2357;47.316;-1.348;2023-09-30T01:38:10;8.97;;;3.90;;
4686;SDS011;2357;47.316;-1.348;2023-09-30T01:40:35;9.93;;;3.73;;
4686;SDS011;2357;47.316;-1.348;2023-09-30T01:43:02;11.83;;;3.50;;
4686;SDS011;2357;47.316;-1.348;2023-09-30T01:45:28;10.47;;;2.83;;
4686;SDS011;2357;47.316;-1.348;2023-09-30T01:47:54;9.13;;;4.30;;
4686;SDS011;2357;47.316;-1.348;2023-09-30T01:50:19;14.13;;;4.03;;
4686;SDS011;2357;47.316;-1.348;2023-09-30T01:52:45;6.30;;;3.23;;
4686;SDS011;2357;47.316;-1.348;2023-09-30T01:55:11;8.00;;;3.20;;
4686;SDS011;2357;47.316;-1.348;2023-09-30T01:57:37;13.23;;;3.27;;
4686;SDS011;2357;47.316;-1.348;2023-09-30T02:00:03;7.20;;;4.37;;
4686;SDS011;2357;47.316;-1.348;2023-09-30T02:02:30;9.60;;;3.30;;
4686;SDS011;2357;47.316;-1.348;2023-09-30T02:04:56;11.80;;;3.50;;
4686;SDS011;2357;47.316;-1.348;2023-09-30T02:07:22;20.50;;;3.53;;
4686;SDS011;2357;47.316;-1.348;2023-09-30T02:09:47;8.43;;;2.83;;
4686;SDS011;2357;47.316;-1.348;2023-09-30T02:12:14;7.00;;;2.83;;
4686;SDS011;2357;47.316;-1.348;2023-09-30T02:14:40;10.83;;;3.40;;
4686;SDS011;2357;47.316;-1.348;2023-09-30T02:17:05;9.20;;;2.87;;
4686;SDS011;2357;47.316;-1.348;2023-09-30T02:19:31;6.33;;;3.00;;
4686;SDS011;2357;47.316;-1.348;2023-09-30T02:21:59;6.23;;;3.43;;
4686;SDS011;2357;47.316;-1.348;2023-09-30T02:24:24;6.50;;;3.17;;
4686;SDS011;2357;47.316;-1.348;2023-09-30T02:26:50;9.10;;;2.80;;
4686;SDS011;2357;47.316;-1.348;2023-09-30T02:29:16;17.40;;;3.97;;
4686;SDS011;2357;47.316;-1.348;2023-09-30T02:31:41;11.73;;;3.40;;
4686;SDS011;2357;47.316;-1.348;2023-09-30T02:34:07;13.03;;;4.40;;
4686;SDS011;2357;47.316;-1.348;2023-09-30T02:36:33;7.80;;;3.27;;
4686;SDS011;2357;47.316;-1.348;2023-09-30T02:39:04;11.40;;;3.57;;
4686;SDS011;2357;47.316;-1.348;2023-09-30T02:41:29;7.13;;;3.73;;
4686;SDS011;2357;47.316;-1.348;2023-09-30T02:43:55;7.83;;;3.70;;
4686;SDS011;2357;47.316;-1.348;2023-09-30T02:46:21;13.67;;;5.03;;
4686;SDS011;2357;47.316;-1.348;2023-09-30T02:48:46;11.83;;;3.57;;
4686;SDS011;2357;47.316;-1.348;2023-09-30T02:51:12;8.40;;;3.43;;
4686;SDS011;2357;47.316;-1.348;2023-09-30T02:53:38;11.80;;;3.63;;
4686;SDS011;2357;47.316;-1.348;2023-09-30T02:56:04;14.97;;;3.30;;
4686;SDS011;2357;47.316;-1.348;2023-09-30T02:58:29;6.53;;;3.33;;
4686;SDS011;2357;47.316;-1.348;2023-09-30T03:00:55;8.10;;;3.10;;
4686;SDS011;2357;47.316;-1.348;2023-09-30T03:03:21;7.63;;;3.13;;
4686;SDS011;2357;47.316;-1.348;2023-09-30T03:05:47;11.70;;;3.47;;
4686;SDS011;2357;47.316;-1.348;2023-09-30T03:08:15;9.20;;;3.30;;
4686;SDS011;2357;47.316;-1.348;2023-09-30T03:10:41;8.67;;;3.60;;
4686;SDS011;2357;47.316;-1.348;2023-09-30T03:13:07;10.17;;;3.80;;
4686;SDS011;2357;47.316;-1.348;2023-09-30T03:15:34;8.80;;;3.63;;
4686;SDS011;2357;47.316;-1.348;2023-09-30T03:18:00;14.30;;;3.30;;
4686;SDS011;2357;47.316;-1.348;2023-09-30T03:20:26;15.57;;;3.93;;
4686;SDS011;2357;47.316;-1.348;2023-09-30T03:22:51;21.57;;;3.90;;
4686;SDS011;2357;47.316;-1.348;2023-09-30T03:25:18;7.93;;;3.80;;
4686;SDS011;2357;47.316;-1.348;2023-09-30T03:27:45;11.50;;;3.90;;
4686;SDS011;2357;47.316;-1.348;2023-09-30T03:30:12;14.70;;;3.90;;
4686;SDS011;2357;47.316;-1.348;2023-09-30T03:32:39;10.60;;;3.17;;
4686;SDS011;2357;47.316;-1.348;2023-09-30T03:35:05;7.87;;;3.13;;
4686;SDS011;2357;47.316;-1.348;2023-09-30T03:37:35;17.70;;;4.40;;
4686;SDS011;2357;47.316;-1.348;2023-09-30T03:40:02;12.70;;;3.60;;
4686;SDS011;2357;47.316;-1.348;2023-09-30T03:42:38;9.70;;;3.40;;
4686;SDS011;2357;47.316;-1.348;2023-09-30T03:45:10;9.47;;;3.10;;
4686;SDS011;2357;47.316;-1.348;2023-09-30T03:47:39;14.43;;;4.00;;
4686;SDS011;2357;47.316;-1.348;2023-09-30T03:50:05;17.27;;;4.17;;
4686;SDS011;2357;47.316;-1.348;2023-09-30T03:52:37;11.33;;;3.50;;
4686;SDS011;2357;47.316;-1.348;2023-09-30T03:55:04;12.90;;;4.47;;
4686;SDS011;2357;47.316;-1.348;2023-09-30T03:57:33;12.77;;;4.20;;
4686;SDS011;2357;47.316;-1.348;2023-09-30T03:59:59;8.07;;;2.97;;
4686;SDS011;2357;47.316;-1.348;2023-09-30T04:02:25;5.83;;;3.00;;
4686;SDS011;2357;47.316;-1.348;2023-09-30T04:04:51;6.13;;;2.87;;
4686;SDS011;2357;47.316;-1.348;2023-09-30T04:07:20;10.13;;;3.30;;
4686;SDS011;2357;47.316;-1.348;2023-09-30T04:09:46;13.37;;;3.10;;
4686;SDS011;2357;47.316;-1.348;2023-09-30T04:12:12;10.20;;;3.13;;
4686;SDS011;2357;47.316;-1.348;2023-09-30T04:14:38;10.73;;;3.83;;
4686;SDS011;2357;47.316;-1.348;2023-09-30T04:17:04;6.80;;;3.80;;
4686;SDS011;2357;47.316;-1.348;2023-09-30T04:19:30;10.77;;;3.53;;
4686;SDS011;2357;47.316;-1.348;2023-09-30T04:21:55;8.70;;;4.00;;
4686;SDS011;2357;47.316;-1.348;2023-09-30T04:24:21;14.73;;;3.87;;
4686;SDS011;2357;47.316;-1.348;2023-09-30T04:26:47;5.27;;;2.43;;
4686;SDS011;2357;47.316;-1.348;2023-09-30T04:29:15;6.17;;;2.83;;
4686;SDS011;2357;47.316;-1.348;2023-09-30T04:31:41;5.60;;;3.17;;
4686;SDS011;2357;47.316;-1.348;2023-09-30T04:34:06;7.27;;;2.70;;
4686;SDS011;2357;47.316;-1.348;2023-09-30T04:36:32;8.17;;;2.90;;
4686;SDS011;2357;47.316;-1.348;2023-09-30T04:39:01;5.83;;;2.63;;
4686;SDS011;2357;47.316;-1.348;2023-09-30T04:41:28;8.43;;;3.47;;
4686;SDS011;2357;47.316;-1.348;2023-09-30T04:43:53;4.73;;;3.23;;
4686;SDS011;2357;47.316;-1.348;2023-09-30T04:46:19;7.50;;;2.90;;
4686;SDS011;2357;47.316;-1.348;2023-09-30T04:48:48;4.27;;;2.53;;
4686;SDS011;2357;47.316;-1.348;2023-09-30T04:51:17;5.40;;;2.80;;
4686;SDS011;2357;47.316;-1.348;2023-09-30T04:53:44;4.47;;;2.50;;
4686;SDS011;2357;47.316;-1.348;2023-09-30T04:56:12;2.70;;;2.30;;
4686;SDS011;2357;47.316;-1.348;2023-09-30T04:58:38;6.00;;;2.73;;
4686;SDS011;2357;47.316;-1.348;2023-09-30T05:01:04;5.87;;;2.63;;
4686;SDS011;2357;47.316;-1.348;2023-09-30T05:03:29;7.37;;;2.23;;
4686;SDS011;2357;47.316;-1.348;2023-09-30T05:05:55;9.40;;;3.43;;
4686;SDS011;2357;47.316;-1.348;2023-09-30T05:08:22;12.27;;;4.33;;
4686;SDS011;2357;47.316;-1.348;2023-09-30T05:10:49;7.57;;;3.13;;
4686;SDS011;2357;47.316;-1.348;2023-09-30T05:13:14;6.30;;;2.70;;
4686;SDS011;2357;47.316;-1.348;2023-09-30T05:15:40;11.07;;;3.00;;
4686;SDS011;2357;47.316;-1.348;2023-09-30T05:18:06;10.93;;;3.10;;
4686;SDS011;2357;47.316;-1.348;2023-09-30T05:20:34;20.80;;;4.13;;
4686;SDS011;2357;47.316;-1.348;2023-09-30T05:23:01;6.10;;;2.97;;
4686;SDS011;2357;47.316;-1.348;2023-09-30T05:25:27;8.57;;;2.77;;
4686;SDS011;2357;47.316;-1.348;2023-09-30T05:27:53;3.77;;;1.90;;
4686;SDS011;2357;47.316;-1.348;2023-09-30T05:30:19;2.90;;;2.20;;
4686;SDS011;2357;47.316;-1.348;2023-09-30T05:32:45;5.13;;;2.90;;
4686;SDS011;2357;47.316;-1.348;2023-09-30T05:35:11;4.20;;;2.60;;
4686;SDS011;2357;47.316;-1.348;2023-09-30T05:37:41;5.67;;;2.83;;
4686;SDS011;2357;47.316;-1.348;2023-09-30T05:40:07;12.30;;;3.30;;
4686;SDS011;2357;47.316;-1.348;2023-09-30T05:42:43;3.70;;;2.60;;
4686;SDS011;2357;47.316;-1.348;2023-09-30T05:45:10;10.60;;;3.93;;
4686;SDS011;2357;47.316;-1.348;2023-09-30T05:47:37;8.80;;;3.20;;
4686;SDS011;2357;47.316;-1.348;2023-09-30T05:50:03;11.97;;;3.83;;
4686;SDS011;2357;47.316;-1.348;2023-09-30T05:52:32;8.73;;;3.23;;
4686;SDS011;2357;47.316;-1.348;2023-09-30T05:54:58;9.77;;;3.30;;
4686;SDS011;2357;47.316;-1.348;2023-09-30T05:57:25;7.57;;;3.00;;
4686;SDS011;2357;47.316;-1.348;2023-09-30T05:59:52;8.13;;;2.73;;
4686;SDS011;2357;47.316;-1.348;2023-09-30T06:02:17;11.20;;;2.43;;
4686;SDS011;2357;47.316;-1.348;2023-09-30T06:04:44;10.60;;;3.57;;
4686;SDS011;2357;47.316;-1.348;2023-09-30T06:07:11;5.43;;;3.00;;
4686;SDS011;2357;47.316;-1.348;2023-09-30T06:09:37;12.50;;;3.50;;
4686;SDS011;2357;47.316;-1.348;2023-09-30T06:12:03;10.13;;;3.30;;
4686;SDS011;2357;47.316;-1.348;2023-09-30T06:14:32;11.63;;;4.10;;
4686;SDS011;2357;47.316;-1.348;2023-09-30T06:16:57;10.27;;;3.23;;
4686;SDS011;2357;47.316;-1.348;2023-09-30T06:19:23;10.80;;;3.10;;
4686;SDS011;2357;47.316;-1.348;2023-09-30T06:21:51;7.33;;;2.93;;
4686;SDS011;2357;47.316;-1.348;2023-09-30T06:24:17;12.33;;;3.63;;
4686;SDS011;2357;47.316;-1.348;2023-09-30T06:26:45;10.97;;;3.07;;
4686;SDS011;2357;47.316;-1.348;2023-09-30T06:29:10;11.47;;;4.00;;
4686;SDS011;2357;47.316;-1.348;2023-09-30T06:31:36;4.47;;;3.20;;
4686;SDS011;2357;47.316;-1.348;2023-09-30T06:34:02;12.03;;;3.27;;
4686;SDS011;2357;47.316;-1.348;2023-09-30T06:36:29;10.17;;;3.77;;
4686;SDS011;2357;47.316;-1.348;2023-09-30T06:38:54;6.87;;;3.30;;
4686;SDS011;2357;47.316;-1.348;2023-09-30T06:41:20;12.63;;;3.80;;
4686;SDS011;2357;47.316;-1.348;2023-09-30T06:43:46;6.10;;;2.67;;
4686;SDS011;2357;47.316;-1.348;2023-09-30T06:46:11;4.03;;;2.80;;
4686;SDS011;2357;47.316;-1.348;2023-09-30T06:48:38;4.20;;;2.63;;
4686;SDS011;2357;47.316;-1.348;2023-09-30T06:51:07;3.57;;;2.77;;
4686;SDS011;2357;47.316;-1.348;2023-09-30T06:53:38;4.77;;;2.50;;
4686;SDS011;2357;47.316;-1.348;2023-09-30T06:56:06;6.10;;;2.60;;
4686;SDS011;2357;47.316;-1.348;2023-09-30T06:58:33;5.27;;;3.23;;
4686;SDS011;2357;47.316;-1.348;2023-09-30T07:00:58;10.37;;;3.37;;
4686;SDS011;2357;47.316;-1.348;2023-09-30T07:03:24;9.63;;;2.93;;
4686;SDS011;2357;47.316;-1.348;2023-09-30T07:05:50;2.33;;;2.07;;
4686;SDS011;2357;47.316;-1.348;2023-09-30T07:08:16;8.10;;;2.83;;
4686;SDS011;2357;47.316;-1.348;2023-09-30T07:10:43;9.97;;;3.93;;
4686;SDS011;2357;47.316;-1.348;2023-09-30T07:13:11;12.43;;;3.77;;
4686;SDS011;2357;47.316;-1.348;2023-09-30T07:15:37;8.37;;;2.57;;
4686;SDS011;2357;47.316;-1.348;2023-09-30T07:18:02;3.70;;;2.83;;
4686;SDS011;2357;47.316;-1.348;2023-09-30T07:20:28;9.93;;;2.93;;
4686;SDS011;2357;47.316;-1.348;2023-09-30T07:22:57;7.80;;;2.80;;
4686;SDS011;2357;47.316;-1.348;2023-09-30T07:25:24;3.00;;;2.50;;
4686;SDS011;2357;47.316;-1.348;2023-09-30T07:27:49;3.80;;;3.27;;
4686;SDS011;2357;47.316;-1.348;2023-09-30T07:30:15;10.17;;;3.40;;
4686;SDS011;2357;47.316;-1.348;2023-09-30T07:32:42;7.10;;;3.23;;
4686;SDS011;2357;47.316;-1.348;2023-09-30T07:35:08;5.80;;;2.27;;
4686;SDS011;2357;47.316;-1.348;2023-09-30T07:37:35;16.77;;;4.03;;
4686;SDS011;2357;47.316;-1.348;2023-09-30T07:40:01;5.17;;;2.80;;
4686;SDS011;2357;47.316;-1.348;2023-09-30T07:42:27;6.80;;;2.73;;
4686;SDS011;2357;47.316;-1.348;2023-09-30T07:44:52;9.47;;;2.90;;
4686;SDS011;2357;47.316;-1.348;2023-09-30T07:47:19;8.23;;;3.23;;
4686;SDS011;2357;47.316;-1.348;2023-09-30T07:49:44;8.33;;;3.50;;
4686;SDS011;2357;47.316;-1.348;2023-09-30T07:52:11;10.90;;;5.43;;
4686;SDS011;2357;47.316;-1.348;2023-09-30T07:54:37;7.97;;;3.33;;
4686;SDS011;2357;47.316;-1.348;2023-09-30T07:57:02;15.33;;;4.13;;
4686;SDS011;2357;47.316;-1.348;2023-09-30T07:59:28;17.30;;;3.60;;
4686;SDS011;2357;47.316;-1.348;2023-09-30T08:01:54;13.40;;;3.90;;
4686;SDS011;2357;47.316;-1.348;2023-09-30T08:04:19;9.83;;;3.63;;
4686;SDS011;2357;47.316;-1.348;2023-09-30T08:06:45;12.47;;;4.57;;
4686;SDS011;2357;47.316;-1.348;2023-09-30T08:09:14;16.53;;;4.50;;
4686;SDS011;2357;47.316;-1.348;2023-09-30T08:11:40;13.63;;;3.70;;
4686;SDS011;2357;47.316;-1.348;2023-09-30T08:14:06;14.03;;;3.47;;
4686;SDS011;2357;47.316;-1.348;2023-09-30T08:16:37;18.40;;;5.00;;
4686;SDS011;2357;47.316;-1.348;2023-09-30T08:19:04;10.07;;;3.90;;
4686;SDS011;2357;47.316;-1.348;2023-09-30T08:21:30;15.73;;;4.53;;
4686;SDS011;2357;47.316;-1.348;2023-09-30T08:23:56;16.00;;;4.83;;
4686;SDS011;2357;47.316;-1.348;2023-09-30T08:26:22;10.13;;;4.10;;
4686;SDS011;2357;47.316;-1.348;2023-09-30T08:28:48;17.00;;;4.30;;
4686;SDS011;2357;47.316;-1.348;2023-09-30T08:31:14;9.30;;;4.53;;
4686;SDS011;2357;47.316;-1.348;2023-09-30T08:33:39;18.97;;;4.27;;
4686;SDS011;2357;47.316;-1.348;2023-09-30T08:36:08;17.30;;;4.47;;
4686;SDS011;2357;47.316;-1.348;2023-09-30T08:38:35;8.50;;;5.23;;
4686;SDS011;2357;47.316;-1.348;2023-09-30T08:41:02;14.83;;;5.60;;
4686;SDS011;2357;47.316;-1.348;2023-09-30T08:43:28;15.00;;;5.50;;
4686;SDS011;2357;47.316;-1.348;2023-09-30T08:45:57;14.57;;;5.60;;
4686;SDS011;2357;47.316;-1.348;2023-09-30T08:48:27;14.77;;;5.30;;
4686;SDS011;2357;47.316;-1.348;2023-09-30T08:50:53;11.90;;;5.70;;
4686;SDS011;2357;47.316;-1.348;2023-09-30T08:53:19;9.13;;;4.10;;
4686;SDS011;2357;47.316;-1.348;2023-09-30T08:55:46;18.07;;;5.80;;
4686;SDS011;2357;47.316;-1.348;2023-09-30T08:58:13;8.13;;;4.00;;
4686;SDS011;2357;47.316;-1.348;2023-09-30T09:00:39;14.40;;;5.33;;
4686;SDS011;2357;47.316;-1.348;2023-09-30T09:03:07;22.40;;;6.37;;
4686;SDS011;2357;47.316;-1.348;2023-09-30T09:05:33;12.90;;;4.90;;
4686;SDS011;2357;47.316;-1.348;2023-09-30T09:07:59;16.50;;;4.80;;
4686;SDS011;2357;47.316;-1.348;2023-09-30T09:10:25;12.07;;;4.00;;
4686;SDS011;2357;47.316;-1.348;2023-09-30T09:12:57;10.10;;;4.13;;
4686;SDS011;2357;47.316;-1.348;2023-09-30T09:15:27;22.73;;;5.03;;
4686;SDS011;2357;47.316;-1.348;2023-09-30T09:17:56;12.73;;;4.37;;
4686;SDS011;2357;47.316;-1.348;2023-09-30T09:20:23;14.07;;;3.90;;
4686;SDS011;2357;47.316;-1.348;2023-09-30T09:22:53;13.70;;;4.13;;
4686;SDS011;2357;47.316;-1.348;2023-09-30T09:25:23;12.50;;;4.40;;
4686;SDS011;2357;47.316;-1.348;2023-09-30T09:27:52;15.23;;;4.60;;
4686;SDS011;2357;47.316;-1.348;2023-09-30T09:32:52;10.07;;;3.93;;
4686;SDS011;2357;47.316;-1.348;2023-09-30T09:35:23;13.73;;;3.97;;
4686;SDS011;2357;47.316;-1.348;2023-09-30T09:38:01;11.50;;;4.17;;
4686;SDS011;2357;47.316;-1.348;2023-09-30T09:40:37;11.33;;;4.50;;
4686;SDS011;2357;47.316;-1.348;2023-09-30T09:43:05;24.73;;;3.90;;
4686;SDS011;2357;47.316;-1.348;2023-09-30T09:45:36;9.00;;;3.53;;
4686;SDS011;2357;47.316;-1.348;2023-09-30T09:48:06;13.43;;;4.10;;
4686;SDS011;2357;47.316;-1.348;2023-09-30T09:50:32;8.37;;;4.13;;
4686;SDS011;2357;47.316;-1.348;2023-09-30T09:52:58;11.93;;;3.93;;
4686;SDS011;2357;47.316;-1.348;2023-09-30T09:55:25;15.23;;;4.90;;
4686;SDS011;2357;47.316;-1.348;2023-09-30T09:57:52;8.53;;;4.03;;
4686;SDS011;2357;47.316;-1.348;2023-09-30T10:00:20;12.63;;;4.43;;
4686;SDS011;2357;47.316;-1.348;2023-09-30T10:02:47;12.30;;;4.03;;
4686;SDS011;2357;47.316;-1.348;2023-09-30T10:05:14;8.33;;;3.10;;
4686;SDS011;2357;47.316;-1.348;2023-09-30T10:07:51;12.30;;;4.33;;
4686;SDS011;2357;47.316;-1.348;2023-09-30T10:10:18;17.53;;;4.03;;
4686;SDS011;2357;47.316;-1.348;2023-09-30T10:12:46;13.23;;;4.43;;
4686;SDS011;2357;47.316;-1.348;2023-09-30T10:18:00;10.67;;;3.37;;
4686;SDS011;2357;47.316;-1.348;2023-09-30T10:20:33;12.13;;;4.30;;
4686;SDS011;2357;47.316;-1.348;2023-09-30T10:25:49;10.10;;;4.50;;
4686;SDS011;2357;47.316;-1.348;2023-09-30T10:28:38;9.17;;;4.10;;
4686;SDS011;2357;47.316;-1.348;2023-09-30T10:36:29;12.77;;;3.93;;
4686;SDS011;2357;47.316;-1.348;2023-09-30T10:38:56;11.97;;;4.20;;
4686;SDS011;2357;47.316;-1.348;2023-09-30T10:41:48;16.90;;;5.33;;
4686;SDS011;2357;47.316;-1.348;2023-09-30T10:46:50;7.43;;;4.20;;
4686;SDS011;2357;47.316;-1.348;2023-09-30T10:49:37;15.70;;;4.77;;
4686;SDS011;2357;47.316;-1.348;2023-09-30T10:52:03;11.60;;;4.40;;
4686;SDS011;2357;47.316;-1.348;2023-09-30T10:54:30;19.53;;;5.70;;
4686;SDS011;2357;47.316;-1.348;2023-09-30T10:56:57;19.90;;;4.50;;
4686;SDS011;2357;47.316;-1.348;2023-09-30T10:59:29;11.47;;;5.00;;
4686;SDS011;2357;47.316;-1.348;2023-09-30T11:01:59;18.20;;;6.30;;
4686;SDS011;2357;47.316;-1.348;2023-09-30T11:04:25;14.40;;;5.40;;
4686;SDS011;2357;47.316;-1.348;2023-09-30T11:06:54;15.60;;;5.40;;
4686;SDS011;2357;47.316;-1.348;2023-09-30T11:09:20;12.93;;;5.30;;
4686;SDS011;2357;47.316;-1.348;2023-09-30T11:11:47;15.37;;;5.73;;
4686;SDS011;2357;47.316;-1.348;2023-09-30T11:14:28;15.43;;;5.83;;
4686;SDS011;2357;47.316;-1.348;2023-09-30T11:16:56;14.73;;;5.10;;
4686;SDS011;2357;47.316;-1.348;2023-09-30T11:19:27;10.00;;;4.30;;
4686;SDS011;2357;47.316;-1.348;2023-09-30T11:22:10;18.03;;;5.77;;
4686;SDS011;2357;47.316;-1.348;2023-09-30T11:24:36;13.57;;;5.10;;
4686;SDS011;2357;47.316;-1.348;2023-09-30T11:27:02;14.27;;;5.63;;
4686;SDS011;2357;47.316;-1.348;2023-09-30T11:29:29;18.07;;;5.57;;
4686;SDS011;2357;47.316;-1.348;2023-09-30T11:31:54;13.00;;;5.00;;
4686;SDS011;2357;47.316;-1.348;2023-09-30T11:34:30;15.50;;;5.77;;
4686;SDS011;2357;47.316;-1.348;2023-09-30T11:37:03;19.00;;;4.90;;
4686;SDS011;2357;47.316;-1.348;2023-09-30T11:39:30;12.70;;;4.40;;
4686;SDS011;2357;47.316;-1.348;2023-09-30T11:41:56;18.10;;;5.90;;
4686;SDS011;2357;47.316;-1.348;2023-09-30T11:44:23;15.10;;;5.40;;
4686;SDS011;2357;47.316;-1.348;2023-09-30T11:46:49;13.03;;;4.80;;
4686;SDS011;2357;47.316;-1.348;2023-09-30T11:49:24;13.47;;;5.27;;
4686;SDS011;2357;47.316;-1.348;2023-09-30T11:51:58;14.57;;;5.00;;
4686;SDS011;2357;47.316;-1.348;2023-09-30T11:54:28;15.37;;;4.80;;
4686;SDS011;2357;47.316;-1.348;2023-09-30T11:56:59;11.37;;;4.83;;
4686;SDS011;2357;47.316;-1.348;2023-09-30T11:59:25;16.63;;;4.77;;
4686;SDS011;2357;47.316;-1.348;2023-09-30T12:01:51;15.10;;;5.27;;
4686;SDS011;2357;47.316;-1.348;2023-09-30T12:04:18;13.33;;;5.03;;
4686;SDS011;2357;47.316;-1.348;2023-09-30T12:06:47;21.10;;;5.70;;
4686;SDS011;2357;47.316;-1.348;2023-09-30T12:09:16;20.40;;;5.93;;
4686;SDS011;2357;47.316;-1.348;2023-09-30T12:11:47;14.63;;;6.27;;
4686;SDS011;2357;47.316;-1.348;2023-09-30T12:14:13;16.70;;;6.43;;
4686;SDS011;2357;47.316;-1.348;2023-09-30T12:16:40;15.90;;;5.80;;
4686;SDS011;2357;47.316;-1.348;2023-09-30T12:19:06;10.87;;;4.93;;
4686;SDS011;2357;47.316;-1.348;2023-09-30T12:21:32;12.60;;;4.80;;
4686;SDS011;2357;47.316;-1.348;2023-09-30T12:23:59;12.33;;;5.90;;
4686;SDS011;2357;47.316;-1.348;2023-09-30T12:26:25;13.20;;;5.43;;
4686;SDS011;2357;47.316;-1.348;2023-09-30T12:28:51;15.03;;;5.47;;
4686;SDS011;2357;47.316;-1.348;2023-09-30T12:31:16;18.30;;;6.33;;
4686;SDS011;2357;47.316;-1.348;2023-09-30T12:33:43;19.97;;;5.77;;
4686;SDS011;2357;47.316;-1.348;2023-09-30T12:36:09;19.70;;;5.73;;
4686;SDS011;2357;47.316;-1.348;2023-09-30T12:38:34;10.07;;;4.53;;
4686;SDS011;2357;47.316;-1.348;2023-09-30T12:41:00;12.33;;;4.03;;
4686;SDS011;2357;47.316;-1.348;2023-09-30T12:43:26;15.83;;;5.23;;
4686;SDS011;2357;47.316;-1.348;2023-09-30T12:45:51;16.63;;;5.33;;
4686;SDS011;2357;47.316;-1.348;2023-09-30T12:48:17;15.93;;;5.10;;
4686;SDS011;2357;47.316;-1.348;2023-09-30T12:50:43;17.33;;;6.57;;
4686;SDS011;2357;47.316;-1.348;2023-09-30T12:53:09;15.53;;;5.97;;
4686;SDS011;2357;47.316;-1.348;2023-09-30T12:55:35;14.70;;;6.00;;
4686;SDS011;2357;47.316;-1.348;2023-09-30T12:58:01;13.57;;;4.87;;
4686;SDS011;2357;47.316;-1.348;2023-09-30T13:00:26;13.13;;;5.53;;
4686;SDS011;2357;47.316;-1.348;2023-09-30T13:02:56;15.27;;;5.67;;
4686;SDS011;2357;47.316;-1.348;2023-09-30T13:05:22;12.47;;;5.20;;
4686;SDS011;2357;47.316;-1.348;2023-09-30T13:07:48;11.47;;;5.20;;
4686;SDS011;2357;47.316;-1.348;2023-09-30T13:10:14;16.77;;;5.23;;
4686;SDS011;2357;47.316;-1.348;2023-09-30T13:12:40;11.13;;;5.50;;
4686;SDS011;2357;47.316;-1.348;2023-09-30T13:15:05;12.30;;;5.83;;
4686;SDS011;2357;47.316;-1.348;2023-09-30T13:17:33;13.33;;;4.97;;
4686;SDS011;2357;47.316;-1.348;2023-09-30T13:19:59;12.80;;;5.30;;
4686;SDS011;2357;47.316;-1.348;2023-09-30T13:22:25;17.30;;;5.03;;
4686;SDS011;2357;47.316;-1.348;2023-09-30T13:24:50;17.90;;;5.07;;
4686;SDS011;2357;47.316;-1.348;2023-09-30T13:27:16;11.50;;;4.63;;
4686;SDS011;2357;47.316;-1.348;2023-09-30T13:29:42;11.90;;;5.60;;
4686;SDS011;2357;47.316;-1.348;2023-09-30T13:32:12;13.77;;;5.27;;
4686;SDS011;2357;47.316;-1.348;2023-09-30T13:34:39;15.73;;;5.40;;
4686;SDS011;2357;47.316;-1.348;2023-09-30T13:37:04;16.13;;;5.50;;
4686;SDS011;2357;47.316;-1.348;2023-09-30T13:39:30;13.73;;;5.30;;
4686;SDS011;2357;47.316;-1.348;2023-09-30T13:41:56;18.07;;;5.30;;
4686;SDS011;2357;47.316;-1.348;2023-09-30T13:44:21;13.60;;;5.50;;
4686;SDS011;2357;47.316;-1.348;2023-09-30T13:46:48;13.73;;;5.63;;
4686;SDS011;2357;47.316;-1.348;2023-09-30T13:49:13;16.70;;;5.67;;
4686;SDS011;2357;47.316;-1.348;2023-09-30T13:51:39;11.90;;;5.70;;
4686;SDS011;2357;47.316;-1.348;2023-09-30T13:54:05;13.10;;;4.93;;
4686;SDS011;2357;47.316;-1.348;2023-09-30T13:56:32;26.17;;;6.57;;
4686;SDS011;2357;47.316;-1.348;2023-09-30T13:58:58;9.17;;;5.20;;
4686;SDS011;2357;47.316;-1.348;2023-09-30T14:01:24;8.97;;;4.37;;
4686;SDS011;2357;47.316;-1.348;2023-09-30T14:03:50;13.63;;;5.70;;
4686;SDS011;2357;47.316;-1.348;2023-09-30T14:06:20;12.60;;;5.00;;
4686;SDS011;2357;47.316;-1.348;2023-09-30T14:08:46;10.13;;;5.47;;
4686;SDS011;2357;47.316;-1.348;2023-09-30T14:11:11;14.93;;;5.50;;
4686;SDS011;2357;47.316;-1.348;2023-09-30T14:13:37;14.10;;;4.83;;
4686;SDS011;2357;47.316;-1.348;2023-09-30T14:16:04;10.27;;;5.30;;
4686;SDS011;2357;47.316;-1.348;2023-09-30T14:18:30;16.23;;;5.80;;
4686;SDS011;2357;47.316;-1.348;2023-09-30T14:20:56;14.37;;;6.30;;
4686;SDS011;2357;47.316;-1.348;2023-09-30T14:23:21;14.77;;;5.43;;
4686;SDS011;2357;47.316;-1.348;2023-09-30T14:25:48;10.07;;;5.17;;
4686;SDS011;2357;47.316;-1.348;2023-09-30T14:28:14;12.03;;;5.83;;
4686;SDS011;2357;47.316;-1.348;2023-09-30T14:30:40;15.47;;;6.03;;
4686;SDS011;2357;47.316;-1.348;2023-09-30T14:33:05;14.00;;;5.10;;
4686;SDS011;2357;47.316;-1.348;2023-09-30T14:35:34;8.67;;;4.70;;
4686;SDS011;2357;47.316;-1.348;2023-09-30T14:38:00;12.87;;;5.43;;
4686;SDS011;2357;47.316;-1.348;2023-09-30T14:40:27;13.90;;;4.60;;
4686;SDS011;2357;47.316;-1.348;2023-09-30T14:42:53;19.40;;;6.60;;
4686;SDS011;2357;47.316;-1.348;2023-09-30T14:45:18;11.73;;;5.43;;
4686;SDS011;2357;47.316;-1.348;2023-09-30T14:47:46;12.80;;;5.40;;
4686;SDS011;2357;47.316;-1.348;2023-09-30T14:50:12;10.57;;;4.13;;
4686;SDS011;2357;47.316;-1.348;2023-09-30T14:52:38;12.70;;;4.30;;
4686;SDS011;2357;47.316;-1.348;2023-09-30T14:55:03;16.80;;;6.03;;
4686;SDS011;2357;47.316;-1.348;2023-09-30T14:57:29;10.93;;;4.80;;
4686;SDS011;2357;47.316;-1.348;2023-09-30T14:59:57;10.47;;;4.60;;
4686;SDS011;2357;47.316;-1.348;2023-09-30T15:02:24;10.53;;;5.10;;
4686;SDS011;2357;47.316;-1.348;2023-09-30T15:04:51;8.67;;;5.00;;
4686;SDS011;2357;47.316;-1.348;2023-09-30T15:07:17;12.70;;;5.63;;
4686;SDS011;2357;47.316;-1.348;2023-09-30T15:09:43;13.30;;;5.40;;
4686;SDS011;2357;47.316;-1.348;2023-09-30T15:12:09;17.23;;;4.70;;